createdAt,value
2023-02-07T00:01:46.786Z,100369.25
2023-02-07T00:04:15.681Z,100363.00
2023-02-07T00:06:44.488Z,100359.99
2023-02-07T00:09:13.540Z,100361.25
2023-02-07T00:11:42.429Z,100366.49
2023-02-07T00:14:12.354Z,100374.23
2023-02-07T00:16:41.922Z,100376.27
2023-02-07T00:19:10.850Z,100378.65
2023-02-07T00:21:39.756Z,100382.83
2023-02-07T00:24:08.734Z,100387.71
2023-02-07T00:26:37.571Z,100387.10
2023-02-07T00:29:06.674Z,100383.10
2023-02-07T00:31:36.223Z,100389.64
2023-02-07T00:34:06.148Z,100387.64
2023-02-07T00:36:35.897Z,100390.61
2023-02-07T00:39:06.304Z,100385.92
2023-02-07T00:41:35.396Z,100383.09
2023-02-07T00:44:04.346Z,100380.20
2023-02-07T00:46:33.330Z,100376.42
2023-02-07T00:49:02.262Z,100375.46
2023-02-07T00:51:31.196Z,100378.16
2023-02-07T00:54:00.572Z,100375.56
2023-02-07T00:56:30.000Z,100377.81
2023-02-07T00:58:59.972Z,100380.80
2023-02-07T01:01:29.027Z,100375.42
2023-02-07T01:03:58.676Z,100370.77
2023-02-07T01:06:29.591Z,100364.54
2023-02-07T01:08:59.726Z,100363.29
2023-02-07T01:11:30.275Z,100370.60
2023-02-07T01:14:00.928Z,100369.98
2023-02-07T01:16:30.548Z,100366.77
2023-02-07T01:18:59.480Z,100364.31
2023-02-07T01:21:28.435Z,100371.35
2023-02-07T01:23:57.497Z,100370.33
2023-02-07T01:26:26.760Z,100371.19
2023-02-07T01:28:56.025Z,100376.32
2023-02-07T01:31:25.334Z,100375.51
2023-02-07T01:33:58.045Z,100375.53
2023-02-07T01:36:27.258Z,100372.13
2023-02-07T01:38:56.455Z,100371.30
2023-02-07T01:41:25.827Z,100371.25
2023-02-07T01:43:56.062Z,100370.56
2023-02-07T01:46:25.083Z,100372.70
2023-02-07T01:48:55.568Z,100377.41
2023-02-07T01:51:24.784Z,100380.23
2023-02-07T01:53:53.764Z,100377.89
2023-02-07T01:56:31.343Z,100379.56
2023-02-07T01:59:02.332Z,100376.36
2023-02-07T02:01:31.196Z,100379.96
2023-02-07T02:04:00.211Z,100380.17
2023-02-07T02:06:30.651Z,100387.12
2023-02-07T02:09:01.061Z,100391.26
2023-02-07T02:11:37.587Z,100388.95
2023-02-07T02:14:08.796Z,100387.89
2023-02-07T02:16:39.612Z,100388.91
2023-02-07T02:19:18.276Z,100383.62
2023-02-07T02:22:05.189Z,100379.33
2023-02-07T02:24:45.484Z,100376.64
2023-02-07T02:27:17.352Z,100377.65
2023-02-07T02:29:59.746Z,100377.47
2023-02-07T02:32:39.365Z,100384.73
2023-02-07T02:35:09.029Z,100383.61
2023-02-07T02:37:47.624Z,100384.13
2023-02-07T02:40:19.559Z,100373.06
2023-02-07T02:42:50.404Z,100371.84
2023-02-07T02:45:19.923Z,100376.94
2023-02-07T02:47:49.345Z,100380.54
2023-02-07T02:50:19.276Z,100378.73
2023-02-07T02:52:51.475Z,100374.75
2023-02-07T02:55:30.223Z,100375.71
2023-02-07T02:58:02.234Z,100371.62
2023-02-07T03:00:36.350Z,100369.20
2023-02-07T03:03:10.583Z,100371.77
2023-02-07T03:05:42.280Z,100374.77
2023-02-07T03:08:14.067Z,100375.98
2023-02-07T03:10:44.689Z,100374.56
2023-02-07T03:13:14.811Z,100368.84
2023-02-07T03:15:46.080Z,100358.77
2023-02-07T03:18:16.336Z,100361.48
2023-02-07T03:20:46.846Z,100355.67
2023-02-07T03:23:15.763Z,100354.39
2023-02-07T03:25:44.662Z,100352.20
2023-02-07T03:28:13.551Z,100351.85
2023-02-07T03:30:43.946Z,100348.56
2023-02-07T03:33:12.933Z,100350.19
2023-02-07T03:35:42.214Z,100350.66
2023-02-07T03:38:12.245Z,100352.30
2023-02-07T03:40:41.725Z,100348.13
2023-02-07T03:43:11.760Z,100350.98
2023-02-07T03:45:40.695Z,100354.13
2023-02-07T03:48:09.767Z,100356.48
2023-02-07T03:50:38.643Z,100356.96
2023-02-07T03:53:07.514Z,100354.61
2023-02-07T03:55:36.726Z,100358.58
2023-02-07T03:58:07.329Z,100358.58
2023-02-07T04:00:36.466Z,100351.23
2023-02-07T04:03:05.887Z,100347.88
2023-02-07T04:05:35.015Z,100349.52
2023-02-07T04:08:04.304Z,100348.80
2023-02-07T04:10:33.197Z,100352.87
2023-02-07T04:13:02.071Z,100352.38
2023-02-07T04:15:31.193Z,100354.40
2023-02-07T04:17:59.985Z,100360.38
2023-02-07T04:20:28.866Z,100358.49
2023-02-07T04:22:57.669Z,100361.08
2023-02-07T04:25:26.695Z,100362.86
2023-02-07T04:27:55.715Z,100362.98
2023-02-07T04:30:24.681Z,100362.34
2023-02-07T04:32:53.762Z,100371.23
2023-02-07T04:35:22.673Z,100367.77
2023-02-07T04:37:51.558Z,100368.56
2023-02-07T04:40:20.552Z,100366.39
2023-02-07T04:42:49.458Z,100372.27
2023-02-07T04:45:18.353Z,100368.61
2023-02-07T04:47:47.165Z,100368.79
2023-02-07T04:50:16.258Z,100364.95
2023-02-07T04:52:45.076Z,100365.37
2023-02-07T04:55:13.955Z,100365.84
2023-02-07T04:57:42.889Z,100365.55
2023-02-07T05:00:13.189Z,100362.34
2023-02-07T05:02:43.573Z,100364.42
2023-02-07T05:05:12.436Z,100362.01
2023-02-07T05:07:41.267Z,100367.20
2023-02-07T05:10:10.503Z,100371.27
2023-02-07T05:12:39.472Z,100377.73
2023-02-07T05:15:08.797Z,100375.23
2023-02-07T05:17:38.746Z,100383.02
2023-02-07T05:20:08.254Z,100386.18
2023-02-07T05:22:37.146Z,100390.30
2023-02-07T05:25:06.477Z,100385.61
2023-02-07T05:27:35.374Z,100380.41
2023-02-07T05:30:05.321Z,100372.16
2023-02-07T05:32:52.070Z,100369.80
2023-02-07T05:35:21.225Z,100371.75
2023-02-07T05:37:50.135Z,100372.13
2023-02-07T05:40:19.299Z,100377.91
2023-02-07T05:42:48.217Z,100386.66
2023-02-07T05:45:17.154Z,100383.24
2023-02-07T05:47:46.107Z,100385.44
2023-02-07T05:50:15.193Z,100385.71
2023-02-07T05:52:44.103Z,100388.02
2023-02-07T05:55:13.443Z,100391.20
2023-02-07T05:57:42.440Z,100391.34
2023-02-07T06:00:13.006Z,100394.02
2023-02-07T06:02:42.443Z,100393.63
2023-02-07T06:05:12.267Z,100393.96
2023-02-07T06:07:41.436Z,100395.92
2023-02-07T06:10:11.187Z,100393.30
2023-02-07T06:12:40.285Z,100391.02
2023-02-07T06:15:09.834Z,100391.77
2023-02-07T06:17:38.743Z,100395.83
2023-02-07T06:20:10.003Z,100392.14
2023-02-07T06:22:38.943Z,100389.39
2023-02-07T06:25:11.634Z,100390.85
2023-02-07T06:27:41.130Z,100394.39
2023-02-07T06:30:11.284Z,100395.46
2023-02-07T06:32:40.362Z,100396.94
2023-02-07T06:35:09.801Z,100402.90
2023-02-07T06:37:38.757Z,100405.23
2023-02-07T06:40:08.280Z,100412.30
2023-02-07T06:42:37.272Z,100415.67
2023-02-07T06:45:06.519Z,100417.91
2023-02-07T06:47:35.419Z,100420.92
2023-02-07T06:50:04.589Z,100424.07
2023-02-07T06:52:33.641Z,100431.23
2023-02-07T06:55:02.493Z,100431.58
2023-02-07T06:57:31.604Z,100439.31
2023-02-07T07:00:00.610Z,100444.59
2023-02-07T07:02:29.601Z,100443.73
2023-02-07T07:04:58.511Z,100446.69
2023-02-07T07:07:27.378Z,100456.03
2023-02-07T07:09:56.230Z,100467.75
2023-02-07T07:12:25.111Z,100480.13
2023-02-07T07:14:54.215Z,100479.69
2023-02-07T07:17:23.186Z,100482.15
2023-02-07T07:19:52.196Z,100479.48
2023-02-07T07:22:21.293Z,100481.55
2023-02-07T07:24:50.269Z,100482.23
2023-02-07T07:27:41.925Z,100485.80
2023-02-07T07:30:14.661Z,100487.20
2023-02-07T07:32:45.038Z,100490.19
2023-02-07T07:35:15.478Z,100492.54
2023-02-07T07:37:46.105Z,100491.52
2023-02-07T07:40:17.133Z,100490.09
2023-02-07T07:42:47.895Z,100488.16
2023-02-07T07:45:38.704Z,100491.44
2023-02-07T07:48:09.194Z,100494.01
2023-02-07T07:50:40.243Z,100497.20
2023-02-07T07:53:10.804Z,100497.55
2023-02-07T07:55:41.186Z,100499.79
2023-02-07T07:58:11.576Z,100500.52
2023-02-07T08:00:42.255Z,100504.43
2023-02-07T08:03:13.508Z,100512.59
2023-02-07T08:05:44.209Z,100506.05
2023-02-07T08:08:15.032Z,100508.17
2023-02-07T08:10:45.672Z,100512.40
2023-02-07T08:13:17.154Z,100503.04
2023-02-07T08:15:47.506Z,100503.88
2023-02-07T08:18:17.844Z,100503.32
2023-02-07T08:20:48.478Z,100499.67
2023-02-07T08:23:18.784Z,100501.91
2023-02-07T08:25:50.395Z,100507.21
2023-02-07T08:28:21.321Z,100507.08
2023-02-07T08:30:51.812Z,100507.73
2023-02-07T08:33:22.233Z,100502.73
2023-02-07T08:35:53.410Z,100502.02
2023-02-07T08:38:23.847Z,100502.73
2023-02-07T08:40:54.451Z,100499.09
2023-02-07T08:43:24.908Z,100501.34
2023-02-07T08:45:55.479Z,100501.90
2023-02-07T08:48:25.935Z,100505.33
2023-02-07T08:50:57.444Z,100510.18
2023-02-07T08:53:27.787Z,100511.52
2023-02-07T08:55:58.120Z,100512.09
2023-02-07T08:58:28.970Z,100511.85
2023-02-07T09:00:59.371Z,100508.18
2023-02-07T09:03:29.949Z,100505.39
2023-02-07T09:06:01.381Z,100501.38
2023-02-07T09:08:32.247Z,100503.56
2023-02-07T09:11:02.766Z,100503.42
2023-02-07T09:13:39.566Z,100500.07
2023-02-07T09:16:10.100Z,100501.95
2023-02-07T09:18:40.671Z,100500.23
2023-02-07T09:21:11.153Z,100496.44
2023-02-07T09:23:41.603Z,100496.23
2023-02-07T09:26:16.238Z,100492.75
2023-02-07T09:28:46.628Z,100489.95
2023-02-07T09:31:18.190Z,100489.24
2023-02-07T09:33:48.618Z,100480.56
2023-02-07T09:36:23.708Z,100477.35
2023-02-07T09:38:54.409Z,100473.60
2023-02-07T09:41:35.267Z,100472.29
2023-02-07T09:44:15.414Z,100465.78
2023-02-07T09:46:49.644Z,100463.56
2023-02-07T09:49:36.557Z,100462.83
2023-02-07T09:52:12.518Z,100463.61
2023-02-07T09:54:45.735Z,100465.09
2023-02-07T09:57:19.511Z,100469.35
2023-02-07T09:59:54.214Z,100472.40
2023-02-07T10:02:31.232Z,100469.79
2023-02-07T10:05:05.032Z,100466.70
2023-02-07T10:07:35.745Z,100462.95
2023-02-07T10:10:13.664Z,100461.91
2023-02-07T10:13:02.961Z,100464.64
2023-02-07T10:15:45.198Z,100467.69
2023-02-07T10:18:30.222Z,100467.94
2023-02-07T10:21:04.712Z,100470.48
2023-02-07T10:23:43.579Z,100469.47
2023-02-07T10:26:27.804Z,100466.98
2023-02-07T10:29:23.741Z,100462.92
2023-02-07T10:31:57.036Z,100463.84
2023-02-07T10:34:31.996Z,100460.05
2023-02-07T10:37:03.025Z,100464.23
2023-02-07T10:39:37.696Z,100464.60
2023-02-07T10:42:11.684Z,100464.59
2023-02-07T10:44:42.605Z,100458.52
2023-02-07T10:47:16.543Z,100457.78
2023-02-07T10:49:49.705Z,100457.33
2023-02-07T10:52:29.381Z,100452.94
2023-02-07T10:55:02.656Z,100453.32
2023-02-07T10:57:33.648Z,100456.11
2023-02-07T11:00:10.784Z,100450.16
2023-02-07T11:02:54.313Z,100441.89
2023-02-07T11:05:39.992Z,100443.41
2023-02-07T11:08:23.882Z,100445.77
2023-02-07T11:10:56.135Z,100443.55
2023-02-07T11:13:29.213Z,100442.88
2023-02-07T11:16:04.075Z,100443.23
2023-02-07T11:18:43.457Z,100440.32
2023-02-07T11:21:31.573Z,100440.48
2023-02-07T11:24:05.060Z,100436.33
2023-02-07T11:26:36.872Z,100443.89
2023-02-07T11:29:13.788Z,100441.20
2023-02-07T11:31:45.465Z,100443.23
2023-02-07T11:34:41.502Z,100443.32
2023-02-07T11:37:20.966Z,100441.27
2023-02-07T11:39:52.845Z,100439.16
2023-02-07T11:42:25.115Z,100433.59
2023-02-07T11:44:55.485Z,100431.38
2023-02-07T11:47:28.689Z,100434.32
2023-02-07T11:50:01.021Z,100433.71
2023-02-07T11:52:33.650Z,100437.18
2023-02-07T11:55:07.521Z,100440.35
2023-02-07T11:57:39.204Z,100443.93
2023-02-07T12:00:19.849Z,100436.36
2023-02-07T12:02:52.781Z,100442.38
2023-02-07T12:05:24.928Z,100439.58
2023-02-07T12:07:57.874Z,100443.49
2023-02-07T12:10:32.819Z,100440.38
2023-02-07T12:13:06.103Z,100435.29
2023-02-07T12:15:39.759Z,100434.63
2023-02-07T12:18:15.765Z,100425.71
2023-02-07T12:20:50.066Z,100420.59
2023-02-07T12:23:42.633Z,100414.30
2023-02-07T12:26:20.666Z,100415.70
2023-02-07T12:29:13.242Z,100414.01
2023-02-07T12:31:51.128Z,100409.92
2023-02-07T12:34:24.273Z,100403.30
2023-02-07T12:36:59.749Z,100404.17
2023-02-07T12:39:36.172Z,100407.30
2023-02-07T12:42:19.732Z,100404.35
2023-02-07T12:44:52.499Z,100399.66
2023-02-07T12:47:22.388Z,100393.54
2023-02-07T12:50:07.547Z,100389.72
2023-02-07T12:52:47.105Z,100389.54
2023-02-07T12:55:25.295Z,100388.85
2023-02-07T12:58:04.480Z,100387.81
2023-02-07T13:00:39.270Z,100375.77
2023-02-07T13:03:21.760Z,100375.76
2023-02-07T13:11:55.426Z,100377.27
2023-02-07T13:14:35.396Z,100381.79
2023-02-07T13:17:20.700Z,100383.45
2023-02-07T13:19:54.861Z,100383.66
2023-02-07T13:22:31.602Z,100380.60
2023-02-07T13:25:02.286Z,100384.45
2023-02-07T13:27:33.950Z,100381.09
2023-02-07T13:30:05.055Z,100380.48
2023-02-07T13:32:35.363Z,100382.70
2023-02-07T13:35:09.183Z,100385.34
2023-02-07T13:37:45.954Z,100387.14
2023-02-07T13:40:26.266Z,100388.00
2023-02-07T13:43:04.765Z,100383.54
2023-02-07T13:45:42.396Z,100381.39
2023-02-07T13:48:18.753Z,100382.17
2023-02-07T13:50:59.281Z,100376.27
2023-02-07T13:53:39.743Z,100377.02
2023-02-07T13:56:40.460Z,100381.98
2023-02-07T13:59:40.536Z,100379.62
2023-02-07T14:02:18.641Z,100386.17
2023-02-07T14:04:51.990Z,100383.83
2023-02-07T14:07:26.083Z,100383.50
2023-02-07T14:09:56.915Z,100386.89
2023-02-07T14:12:28.901Z,100390.16
2023-02-07T14:15:41.874Z,100386.83
2023-02-07T14:18:45.613Z,100386.30
2023-02-07T14:21:33.631Z,100385.21
2023-02-07T14:24:20.719Z,100390.05
2023-02-07T14:27:03.401Z,100391.73
2023-02-07T14:29:55.395Z,100391.70
2023-02-07T14:32:39.763Z,100390.25
2023-02-07T14:35:33.516Z,100395.80
2023-02-07T14:38:14.002Z,100393.25
2023-02-07T14:41:09.611Z,100394.11
2023-02-07T14:43:54.315Z,100385.59
2023-02-07T14:46:38.169Z,100389.16
2023-02-07T14:49:12.569Z,100389.71
2023-02-07T14:51:45.108Z,100392.04
2023-02-07T14:54:23.502Z,100392.48
2023-02-07T14:57:00.294Z,100388.83
2023-02-07T14:59:36.436Z,100386.38
2023-02-07T15:02:31.649Z,100388.02
2023-02-07T15:05:16.746Z,100387.88
2023-02-07T15:07:47.859Z,100391.32
2023-02-07T15:10:23.929Z,100396.05
2023-02-07T15:12:54.993Z,100391.55
2023-02-07T15:15:27.357Z,100394.20
2023-02-07T15:18:00.131Z,100395.71
2023-02-07T15:20:33.511Z,100398.20
2023-02-07T15:23:07.334Z,100398.00
2023-02-07T15:25:38.201Z,100397.20
2023-02-07T15:28:26.668Z,100396.02
2023-02-07T15:30:59.854Z,100390.49
2023-02-07T15:33:36.670Z,100392.19
2023-02-07T15:36:26.759Z,100389.26
2023-02-07T15:38:57.313Z,100389.50
2023-02-07T15:41:28.251Z,100389.04
2023-02-07T15:44:02.889Z,100390.71
2023-02-07T15:46:47.728Z,100389.96
2023-02-07T15:49:30.000Z,100386.33
2023-02-07T15:52:06.662Z,100387.98
2023-02-07T15:54:40.961Z,100385.02
2023-02-07T15:57:17.781Z,100383.17
2023-02-07T15:59:51.843Z,100380.42
2023-02-07T16:02:29.916Z,100385.42
2023-02-07T16:05:06.360Z,100392.82
2023-02-07T16:07:38.644Z,100395.66
2023-02-07T16:10:20.800Z,100393.67
2023-02-07T16:12:55.405Z,100394.14
2023-02-07T16:15:28.665Z,100395.95
2023-02-07T16:17:59.295Z,100397.93
2023-02-07T16:20:31.065Z,100404.19
2023-02-07T16:23:03.810Z,100402.33
2023-02-07T16:25:36.451Z,100402.12
2023-02-07T16:28:11.253Z,100409.48
2023-02-07T16:30:42.167Z,100408.98
2023-02-07T16:33:15.246Z,100409.27
2023-02-07T16:35:45.729Z,100412.11
2023-02-07T16:38:16.507Z,100414.69
2023-02-07T16:40:47.130Z,100413.03
2023-02-07T16:43:32.779Z,100414.07
2023-02-07T16:46:04.554Z,100421.85
2023-02-07T16:48:34.934Z,100419.04
2023-02-07T16:51:05.677Z,100416.48
2023-02-07T16:53:36.179Z,100417.83
2023-02-07T16:56:07.313Z,100414.87
2023-02-07T16:58:37.753Z,100415.15
2023-02-07T17:01:08.763Z,100415.42
2023-02-07T17:03:39.161Z,100415.54
2023-02-07T17:06:12.408Z,100417.38
2023-02-07T17:08:43.096Z,100419.29
2023-02-07T17:11:19.510Z,100416.85
2023-02-07T17:13:49.885Z,100415.67
2023-02-07T17:16:20.538Z,100419.40
2023-02-07T17:18:51.631Z,100422.85
2023-02-07T17:21:23.793Z,100419.29
2023-02-07T17:23:54.185Z,100421.59
2023-02-07T17:26:26.425Z,100424.35
2023-02-07T17:28:56.987Z,100428.96
2023-02-07T17:31:27.491Z,100429.52
2023-02-07T17:33:58.249Z,100429.80
2023-02-07T17:36:29.676Z,100429.13
2023-02-07T17:39:00.195Z,100429.23
2023-02-07T17:41:31.371Z,100428.48
2023-02-07T17:44:01.764Z,100425.40
2023-02-07T17:46:33.028Z,100426.95
2023-02-07T17:49:03.425Z,100422.67
2023-02-07T17:51:33.772Z,100428.94
2023-02-07T17:54:04.172Z,100428.71
2023-02-07T17:56:35.657Z,100435.45
2023-02-07T17:59:09.475Z,100430.98
2023-02-07T18:01:39.847Z,100432.16
2023-02-07T18:04:10.456Z,100431.48
2023-02-07T18:06:42.327Z,100431.96
2023-02-07T18:09:16.400Z,100432.39
2023-02-07T18:11:47.079Z,100428.19
2023-02-07T18:14:17.960Z,100431.63
2023-02-07T18:16:48.609Z,100427.58
2023-02-07T18:19:19.906Z,100426.08
2023-02-07T18:21:50.427Z,100428.27
2023-02-07T18:24:21.985Z,100426.02
2023-02-07T18:26:52.820Z,100426.70
2023-02-07T18:36:22.893Z,100425.52
2023-02-07T18:38:53.555Z,100425.46
2023-02-07T18:41:26.390Z,100428.73
2023-02-07T18:43:56.737Z,100423.91
2023-02-07T18:46:27.659Z,100427.65
2023-02-07T18:48:59.303Z,100428.69
2023-02-07T18:51:29.753Z,100431.23
2023-02-07T18:54:00.153Z,100427.71
2023-02-07T18:56:30.625Z,100426.10
2023-02-07T18:59:01.009Z,100423.44
2023-02-07T19:01:32.080Z,100416.88
2023-02-07T19:04:02.508Z,100423.23
2023-02-07T19:06:34.091Z,100426.98
2023-02-07T19:09:04.585Z,100428.94
2023-02-07T19:11:35.626Z,100426.15
2023-02-07T19:14:10.346Z,100426.35
2023-02-07T19:16:41.238Z,100427.03
2023-02-07T19:19:13.678Z,100423.89
2023-02-07T19:21:44.490Z,100425.72
2023-02-07T19:24:18.320Z,100427.25
2023-02-07T19:26:50.426Z,100430.23
2023-02-07T19:29:27.872Z,100430.62
2023-02-07T19:31:59.220Z,100427.34
2023-02-07T19:34:29.869Z,100424.15
2023-02-07T19:37:00.346Z,100429.73
2023-02-07T19:39:30.732Z,100429.39
2023-02-07T19:42:01.177Z,100428.95
2023-02-07T19:44:31.604Z,100432.11
2023-02-07T19:47:01.932Z,100434.92
2023-02-07T19:49:32.243Z,100430.71
2023-02-07T19:52:02.576Z,100432.67
2023-02-07T19:54:32.910Z,100436.81
2023-02-07T19:57:03.240Z,100438.11
2023-02-07T19:59:33.546Z,100434.24
2023-02-07T20:02:04.103Z,100439.79
2023-02-07T20:04:37.853Z,100441.09
2023-02-07T20:07:08.171Z,100443.28
2023-02-07T20:09:38.653Z,100446.24
2023-02-07T20:12:09.376Z,100449.45
2023-02-07T20:14:40.146Z,100450.90
2023-02-07T20:17:10.600Z,100453.86
2023-02-07T20:19:41.279Z,100454.42
2023-02-07T20:22:11.604Z,100456.63
2023-02-07T20:24:41.924Z,100456.75
2023-02-07T20:27:12.488Z,100457.46
2023-02-07T20:29:43.247Z,100458.65
2023-02-07T20:32:14.864Z,100460.77
2023-02-07T20:34:45.231Z,100460.21
2023-02-07T20:37:15.623Z,100468.27
2023-02-07T20:39:46.114Z,100463.73
2023-02-07T20:42:16.814Z,100463.80
2023-02-07T20:44:47.325Z,100456.30
2023-02-07T20:47:18.016Z,100454.38
2023-02-07T20:49:48.410Z,100460.41
2023-02-07T20:52:18.860Z,100458.38
2023-02-07T20:54:49.349Z,100464.26
2023-02-07T20:57:20.002Z,100462.54
2023-02-07T20:59:50.768Z,100463.97
2023-02-07T21:02:21.075Z,100463.48
2023-02-07T21:04:51.633Z,100465.06
2023-02-07T21:07:21.988Z,100468.44
2023-02-07T21:09:52.861Z,100464.38
2023-02-07T21:12:23.391Z,100465.21
2023-02-07T21:14:53.755Z,100461.88
2023-02-07T21:17:24.296Z,100458.11
2023-02-07T21:19:54.728Z,100458.63
2023-02-07T21:22:25.087Z,100457.79
2023-02-07T21:24:55.493Z,100460.50
2023-02-07T21:27:25.961Z,100459.59
2023-02-07T21:29:56.319Z,100457.42
2023-02-07T21:32:26.737Z,100456.80
2023-02-07T21:34:57.235Z,100457.20
2023-02-07T21:37:27.947Z,100458.95
2023-02-07T21:39:58.336Z,100459.89
2023-02-07T21:42:28.930Z,100455.27
2023-02-07T21:44:59.379Z,100456.64
2023-02-07T21:47:30.700Z,100454.39
2023-02-07T21:50:01.312Z,100454.26
2023-02-07T21:52:31.972Z,100451.35
2023-02-07T21:55:02.431Z,100450.69
2023-02-07T21:57:33.011Z,100448.93
2023-02-07T22:00:03.456Z,100450.41
2023-02-07T22:02:36.881Z,100450.62
2023-02-07T22:05:07.862Z,100449.13
2023-02-07T22:07:38.211Z,100450.73
2023-02-07T22:10:09.749Z,100455.14
2023-02-07T22:12:40.084Z,100453.05
2023-02-07T22:15:11.036Z,100454.04
2023-02-07T22:17:41.327Z,100452.31
2023-02-07T22:20:12.980Z,100445.23
2023-02-07T22:22:43.389Z,100436.80
2023-02-07T22:25:14.279Z,100427.33
2023-02-07T22:27:44.610Z,100421.61
2023-02-07T22:30:16.548Z,100425.47
2023-02-07T22:32:46.993Z,100419.70
2023-02-07T22:35:17.748Z,100419.88
2023-02-07T22:37:48.150Z,100419.74
2023-02-07T22:40:19.166Z,100423.80
2023-02-07T22:42:49.490Z,100414.92
2023-02-07T22:45:20.520Z,100418.15
2023-02-07T22:47:50.850Z,100415.46
2023-02-07T22:50:21.574Z,100416.29
2023-02-07T22:52:51.928Z,100416.39
2023-02-07T22:55:22.286Z,100417.00
2023-02-07T22:57:53.312Z,100417.68
2023-02-07T23:00:23.799Z,100418.50
2023-02-07T23:02:54.303Z,100415.27
2023-02-07T23:05:24.951Z,100418.11
2023-02-07T23:07:55.892Z,100417.83
2023-02-07T23:10:26.796Z,100421.34
2023-02-07T23:12:57.405Z,100417.63
2023-02-07T23:15:28.273Z,100415.47
2023-02-07T23:17:58.593Z,100417.10
2023-02-07T23:20:28.929Z,100416.77
2023-02-07T23:22:59.317Z,100411.85
2023-02-07T23:25:29.663Z,100414.00
2023-02-07T23:28:00.043Z,100414.03
2023-02-07T23:30:30.853Z,100416.73
2023-02-07T23:33:01.552Z,100416.74
2023-02-07T23:35:32.095Z,100414.55
2023-02-07T23:38:02.830Z,100417.30
2023-02-07T23:40:33.888Z,100418.81
2023-02-07T23:43:04.403Z,100417.48
2023-02-07T23:45:34.856Z,100416.67
2023-02-07T23:48:07.174Z,100415.23
2023-02-07T23:50:38.006Z,100413.16
2023-02-07T23:53:08.425Z,100411.38
2023-02-07T23:55:42.714Z,100413.33
2023-02-07T23:58:12.966Z,100412.11
